sensor_id;sensor_type;location;lat;lon;timestamp;P1;durP1;ratioP1;P2;durP2;ratioP2
48207;SDS011;33997;53.278;9.708;2023-05-10T00:00:29;4.10;;;2.22;;
48207;SDS011;33997;53.278;9.708;2023-05-10T00:02:56;5.28;;;2.70;;
48207;SDS011;33997;53.278;9.708;2023-05-10T00:05:21;5.18;;;2.30;;
48207;SDS011;33997;53.278;9.708;2023-05-10T00:07:47;7.85;;;2.72;;
48207;SDS011;33997;53.278;9.708;2023-05-10T00:10:12;6.43;;;2.50;;
48207;SDS011;33997;53.278;9.708;2023-05-10T00:12:38;5.80;;;2.95;;
48207;SDS011;33997;53.278;9.708;2023-05-10T00:15:03;4.30;;;2.30;;
48207;SDS011;33997;53.278;9.708;2023-05-10T00:17:30;5.80;;;2.63;;
48207;SDS011;33997;53.278;9.708;2023-05-10T00:19:55;4.90;;;2.60;;
48207;SDS011;33997;53.278;9.708;2023-05-10T00:22:21;6.75;;;2.30;;
48207;SDS011;33997;53.278;9.708;2023-05-10T00:24:46;5.40;;;3.03;;
48207;SDS011;33997;53.278;9.708;2023-05-10T00:27:12;5.35;;;2.72;;
48207;SDS011;33997;53.278;9.708;2023-05-10T00:29:37;5.03;;;2.67;;
48207;SDS011;33997;53.278;9.708;2023-05-10T00:32:03;5.70;;;2.55;;
48207;SDS011;33997;53.278;9.708;2023-05-10T00:34:29;4.03;;;2.58;;
48207;SDS011;33997;53.278;9.708;2023-05-10T00:36:54;5.00;;;2.80;;
48207;SDS011;33997;53.278;9.708;2023-05-10T00:39:20;6.60;;;2.38;;
48207;SDS011;33997;53.278;9.708;2023-05-10T00:41:45;4.47;;;2.10;;
48207;SDS011;33997;53.278;9.708;2023-05-10T00:44:11;4.55;;;2.63;;
48207;SDS011;33997;53.278;9.708;2023-05-10T00:46:36;4.93;;;2.65;;
48207;SDS011;33997;53.278;9.708;2023-05-10T00:49:02;5.85;;;2.78;;
48207;SDS011;33997;53.278;9.708;2023-05-10T00:51:27;6.85;;;2.30;;
48207;SDS011;33997;53.278;9.708;2023-05-10T00:53:53;5.30;;;2.83;;
48207;SDS011;33997;53.278;9.708;2023-05-10T00:56:20;5.05;;;2.70;;
48207;SDS011;33997;53.278;9.708;2023-05-10T00:58:48;6.72;;;2.20;;
48207;SDS011;33997;53.278;9.708;2023-05-10T01:01:13;6.22;;;2.72;;
48207;SDS011;33997;53.278;9.708;2023-05-10T01:03:40;6.38;;;2.53;;
48207;SDS011;33997;53.278;9.708;2023-05-10T01:06:06;3.70;;;2.17;;
48207;SDS011;33997;53.278;9.708;2023-05-10T01:08:32;6.72;;;2.63;;
48207;SDS011;33997;53.278;9.708;2023-05-10T01:10:58;6.53;;;2.70;;
48207;SDS011;33997;53.278;9.708;2023-05-10T01:13:36;8.20;;;2.70;;
48207;SDS011;33997;53.278;9.708;2023-05-10T01:16:04;5.60;;;2.73;;
48207;SDS011;33997;53.278;9.708;2023-05-10T01:18:31;5.20;;;2.95;;
48207;SDS011;33997;53.278;9.708;2023-05-10T01:21:08;4.63;;;2.83;;
48207;SDS011;33997;53.278;9.708;2023-05-10T01:23:54;6.22;;;2.58;;
48207;SDS011;33997;53.278;9.708;2023-05-10T01:26:30;10.95;;;2.50;;
48207;SDS011;33997;53.278;9.708;2023-05-10T01:29:33;3.50;;;2.50;;
48207;SDS011;33997;53.278;9.708;2023-05-10T01:32:41;4.40;;;2.80;;
48207;SDS011;33997;53.278;9.708;2023-05-10T01:35:31;4.03;;;2.53;;
48207;SDS011;33997;53.278;9.708;2023-05-10T01:38:17;5.28;;;2.55;;
48207;SDS011;33997;53.278;9.708;2023-05-10T01:40:53;5.00;;;2.67;;
48207;SDS011;33997;53.278;9.708;2023-05-10T01:43:45;4.15;;;2.72;;
48207;SDS011;33997;53.278;9.708;2023-05-10T01:46:33;5.03;;;2.58;;
48207;SDS011;33997;53.278;9.708;2023-05-10T01:49:08;6.90;;;2.80;;
48207;SDS011;33997;53.278;9.708;2023-05-10T01:51:40;6.70;;;2.92;;
48207;SDS011;33997;53.278;9.708;2023-05-10T01:54:11;4.18;;;3.00;;
48207;SDS011;33997;53.278;9.708;2023-05-10T01:56:38;4.40;;;2.60;;
48207;SDS011;33997;53.278;9.708;2023-05-10T01:59:05;4.72;;;2.70;;
48207;SDS011;33997;53.278;9.708;2023-05-10T02:01:37;6.10;;;2.67;;
48207;SDS011;33997;53.278;9.708;2023-05-10T02:04:04;5.53;;;2.63;;
48207;SDS011;33997;53.278;9.708;2023-05-10T02:06:31;4.15;;;2.50;;
48207;SDS011;33997;53.278;9.708;2023-05-10T02:08:58;5.85;;;2.70;;
48207;SDS011;33997;53.278;9.708;2023-05-10T02:11:25;6.78;;;2.85;;
48207;SDS011;33997;53.278;9.708;2023-05-10T02:13:53;4.18;;;2.30;;
48207;SDS011;33997;53.278;9.708;2023-05-10T02:16:21;6.05;;;2.97;;
48207;SDS011;33997;53.278;9.708;2023-05-10T02:18:50;5.30;;;2.70;;
48207;SDS011;33997;53.278;9.708;2023-05-10T02:21:17;6.15;;;3.05;;
48207;SDS011;33997;53.278;9.708;2023-05-10T02:23:43;4.75;;;3.03;;
48207;SDS011;33997;53.278;9.708;2023-05-10T02:26:10;6.00;;;3.03;;
48207;SDS011;33997;53.278;9.708;2023-05-10T02:28:36;5.00;;;2.92;;
48207;SDS011;33997;53.278;9.708;2023-05-10T02:31:05;9.77;;;3.17;;
48207;SDS011;33997;53.278;9.708;2023-05-10T02:33:31;4.53;;;2.92;;
48207;SDS011;33997;53.278;9.708;2023-05-10T02:35:58;6.18;;;2.97;;
48207;SDS011;33997;53.278;9.708;2023-05-10T02:38:24;5.53;;;3.00;;
48207;SDS011;33997;53.278;9.708;2023-05-10T02:40:51;5.03;;;2.72;;
48207;SDS011;33997;53.278;9.708;2023-05-10T02:43:18;4.43;;;2.78;;
48207;SDS011;33997;53.278;9.708;2023-05-10T02:45:46;5.30;;;2.88;;
48207;SDS011;33997;53.278;9.708;2023-05-10T02:48:13;5.25;;;3.00;;
48207;SDS011;33997;53.278;9.708;2023-05-10T02:50:38;5.93;;;3.28;;
48207;SDS011;33997;53.278;9.708;2023-05-10T02:53:15;4.95;;;2.80;;
48207;SDS011;33997;53.278;9.708;2023-05-10T02:55:44;4.97;;;2.67;;
48207;SDS011;33997;53.278;9.708;2023-05-10T02:58:12;5.70;;;2.92;;
48207;SDS011;33997;53.278;9.708;2023-05-10T03:00:38;5.75;;;3.20;;
48207;SDS011;33997;53.278;9.708;2023-05-10T03:03:03;6.28;;;2.90;;
48207;SDS011;33997;53.278;9.708;2023-05-10T03:05:29;6.10;;;2.97;;
48207;SDS011;33997;53.278;9.708;2023-05-10T03:07:54;7.13;;;3.65;;
48207;SDS011;33997;53.278;9.708;2023-05-10T03:10:21;4.05;;;2.65;;
48207;SDS011;33997;53.278;9.708;2023-05-10T03:20:43;5.45;;;3.00;;
48207;SDS011;33997;53.278;9.708;2023-05-10T03:23:15;6.80;;;3.30;;
48207;SDS011;33997;53.278;9.708;2023-05-10T03:26:07;5.90;;;3.28;;
48207;SDS011;33997;53.278;9.708;2023-05-10T03:28:33;4.10;;;2.88;;
48207;SDS011;33997;53.278;9.708;2023-05-10T03:31:00;5.40;;;3.38;;
48207;SDS011;33997;53.278;9.708;2023-05-10T03:33:27;7.13;;;3.53;;
48207;SDS011;33997;53.278;9.708;2023-05-10T03:35:53;7.00;;;3.38;;
48207;SDS011;33997;53.278;9.708;2023-05-10T03:38:19;5.07;;;3.30;;
48207;SDS011;33997;53.278;9.708;2023-05-10T03:40:44;9.68;;;3.72;;
48207;SDS011;33997;53.278;9.708;2023-05-10T03:43:10;5.65;;;3.08;;
48207;SDS011;33997;53.278;9.708;2023-05-10T03:45:35;6.15;;;3.22;;
48207;SDS011;33997;53.278;9.708;2023-05-10T03:48:01;5.13;;;3.20;;
48207;SDS011;33997;53.278;9.708;2023-05-10T03:50:26;9.27;;;3.55;;
48207;SDS011;33997;53.278;9.708;2023-05-10T03:52:52;5.70;;;3.42;;
48207;SDS011;33997;53.278;9.708;2023-05-10T03:55:18;5.28;;;3.50;;
48207;SDS011;33997;53.278;9.708;2023-05-10T03:57:43;5.10;;;3.00;;
48207;SDS011;33997;53.278;9.708;2023-05-10T04:00:09;8.02;;;3.50;;
48207;SDS011;33997;53.278;9.708;2023-05-10T04:02:35;5.88;;;3.17;;
48207;SDS011;33997;53.278;9.708;2023-05-10T04:05:01;6.35;;;3.30;;
48207;SDS011;33997;53.278;9.708;2023-05-10T04:07:27;7.03;;;3.20;;
48207;SDS011;33997;53.278;9.708;2023-05-10T04:09:52;5.63;;;3.22;;
48207;SDS011;33997;53.278;9.708;2023-05-10T04:12:18;4.90;;;3.00;;
48207;SDS011;33997;53.278;9.708;2023-05-10T04:14:43;6.03;;;3.30;;
48207;SDS011;33997;53.278;9.708;2023-05-10T04:17:09;4.82;;;3.58;;
48207;SDS011;33997;53.278;9.708;2023-05-10T04:19:35;6.28;;;3.60;;
48207;SDS011;33997;53.278;9.708;2023-05-10T04:22:01;4.80;;;3.13;;
48207;SDS011;33997;53.278;9.708;2023-05-10T04:24:27;5.03;;;3.10;;
48207;SDS011;33997;53.278;9.708;2023-05-10T04:26:53;5.47;;;3.30;;
48207;SDS011;33997;53.278;9.708;2023-05-10T04:29:19;5.30;;;3.40;;
48207;SDS011;33997;53.278;9.708;2023-05-10T04:31:45;6.43;;;3.03;;
48207;SDS011;33997;53.278;9.708;2023-05-10T04:34:10;7.68;;;3.50;;
48207;SDS011;33997;53.278;9.708;2023-05-10T04:36:36;8.15;;;3.70;;
48207;SDS011;33997;53.278;9.708;2023-05-10T04:39:02;5.93;;;3.45;;
48207;SDS011;33997;53.278;9.708;2023-05-10T04:41:28;4.93;;;2.90;;
48207;SDS011;33997;53.278;9.708;2023-05-10T04:43:54;6.25;;;3.45;;
48207;SDS011;33997;53.278;9.708;2023-05-10T04:46:19;5.53;;;3.17;;
48207;SDS011;33997;53.278;9.708;2023-05-10T04:48:45;4.75;;;3.30;;
48207;SDS011;33997;53.278;9.708;2023-05-10T04:51:10;7.60;;;3.47;;
48207;SDS011;33997;53.278;9.708;2023-05-10T04:53:36;8.35;;;3.22;;
48207;SDS011;33997;53.278;9.708;2023-05-10T04:56:01;6.45;;;3.38;;
48207;SDS011;33997;53.278;9.708;2023-05-10T04:58:27;5.97;;;3.35;;
48207;SDS011;33997;53.278;9.708;2023-05-10T05:00:52;5.57;;;3.33;;
48207;SDS011;33997;53.278;9.708;2023-05-10T05:03:18;5.15;;;3.00;;
48207;SDS011;33997;53.278;9.708;2023-05-10T05:05:43;7.25;;;3.15;;
48207;SDS011;33997;53.278;9.708;2023-05-10T05:08:09;7.13;;;3.45;;
48207;SDS011;33997;53.278;9.708;2023-05-10T05:10:35;4.60;;;3.10;;
48207;SDS011;33997;53.278;9.708;2023-05-10T05:13:00;6.22;;;3.63;;
48207;SDS011;33997;53.278;9.708;2023-05-10T05:15:26;5.20;;;3.08;;
48207;SDS011;33997;53.278;9.708;2023-05-10T05:17:52;7.32;;;3.42;;
48207;SDS011;33997;53.278;9.708;2023-05-10T05:20:17;6.28;;;3.30;;
48207;SDS011;33997;53.278;9.708;2023-05-10T05:22:43;5.15;;;3.20;;
48207;SDS011;33997;53.278;9.708;2023-05-10T05:25:09;4.63;;;3.30;;
48207;SDS011;33997;53.278;9.708;2023-05-10T05:27:36;8.18;;;3.05;;
48207;SDS011;33997;53.278;9.708;2023-05-10T05:30:02;5.35;;;3.28;;
48207;SDS011;33997;53.278;9.708;2023-05-10T05:32:28;8.98;;;3.45;;
48207;SDS011;33997;53.278;9.708;2023-05-10T05:34:53;9.55;;;3.50;;
48207;SDS011;33997;53.278;9.708;2023-05-10T05:37:19;8.93;;;3.20;;
48207;SDS011;33997;53.278;9.708;2023-05-10T05:39:46;9.23;;;3.92;;
48207;SDS011;33997;53.278;9.708;2023-05-10T05:42:12;7.95;;;3.20;;
48207;SDS011;33997;53.278;9.708;2023-05-10T05:44:38;5.88;;;3.20;;
48207;SDS011;33997;53.278;9.708;2023-05-10T05:47:04;6.60;;;3.53;;
48207;SDS011;33997;53.278;9.708;2023-05-10T05:49:30;5.45;;;3.30;;
48207;SDS011;33997;53.278;9.708;2023-05-10T05:51:59;7.90;;;3.20;;
48207;SDS011;33997;53.278;9.708;2023-05-10T05:54:26;8.82;;;3.58;;
48207;SDS011;33997;53.278;9.708;2023-05-10T05:56:53;5.68;;;3.33;;
48207;SDS011;33997;53.278;9.708;2023-05-10T05:59:20;5.75;;;3.58;;
48207;SDS011;33997;53.278;9.708;2023-05-10T06:01:46;6.95;;;3.15;;
48207;SDS011;33997;53.278;9.708;2023-05-10T06:04:11;6.22;;;3.10;;
48207;SDS011;33997;53.278;9.708;2023-05-10T06:06:37;6.10;;;3.30;;
48207;SDS011;33997;53.278;9.708;2023-05-10T06:09:02;7.43;;;3.75;;
48207;SDS011;33997;53.278;9.708;2023-05-10T06:11:28;4.82;;;3.30;;
48207;SDS011;33997;53.278;9.708;2023-05-10T06:13:53;6.82;;;3.20;;
48207;SDS011;33997;53.278;9.708;2023-05-10T06:16:19;5.25;;;3.28;;
48207;SDS011;33997;53.278;9.708;2023-05-10T06:18:44;4.35;;;3.20;;
48207;SDS011;33997;53.278;9.708;2023-05-10T06:21:10;7.85;;;3.25;;
48207;SDS011;33997;53.278;9.708;2023-05-10T06:23:35;5.22;;;3.45;;
48207;SDS011;33997;53.278;9.708;2023-05-10T06:26:01;14.05;;;3.50;;
48207;SDS011;33997;53.278;9.708;2023-05-10T06:28:27;5.35;;;3.22;;
48207;SDS011;33997;53.278;9.708;2023-05-10T06:30:52;6.03;;;3.45;;
48207;SDS011;33997;53.278;9.708;2023-05-10T06:33:18;7.45;;;3.13;;
48207;SDS011;33997;53.278;9.708;2023-05-10T06:35:43;7.20;;;3.10;;
48207;SDS011;33997;53.278;9.708;2023-05-10T06:38:08;4.93;;;3.20;;
48207;SDS011;33997;53.278;9.708;2023-05-10T06:40:34;10.57;;;3.50;;
48207;SDS011;33997;53.278;9.708;2023-05-10T06:43:00;11.13;;;3.42;;
48207;SDS011;33997;53.278;9.708;2023-05-10T06:45:26;7.53;;;3.85;;
48207;SDS011;33997;53.278;9.708;2023-05-10T06:47:51;9.25;;;3.70;;
48207;SDS011;33997;53.278;9.708;2023-05-10T06:50:17;11.25;;;3.45;;
48207;SDS011;33997;53.278;9.708;2023-05-10T06:52:43;7.50;;;3.70;;
48207;SDS011;33997;53.278;9.708;2023-05-10T06:55:08;5.15;;;3.05;;
48207;SDS011;33997;53.278;9.708;2023-05-10T06:57:34;7.30;;;3.40;;
48207;SDS011;33997;53.278;9.708;2023-05-10T07:00:00;9.68;;;3.33;;
48207;SDS011;33997;53.278;9.708;2023-05-10T07:02:26;8.68;;;3.55;;
48207;SDS011;33997;53.278;9.708;2023-05-10T07:04:52;7.90;;;3.22;;
48207;SDS011;33997;53.278;9.708;2023-05-10T07:07:17;10.43;;;3.40;;
48207;SDS011;33997;53.278;9.708;2023-05-10T07:09:43;13.00;;;3.80;;
48207;SDS011;33997;53.278;9.708;2023-05-10T07:12:09;8.38;;;3.70;;
48207;SDS011;33997;53.278;9.708;2023-05-10T07:14:35;7.38;;;3.25;;
48207;SDS011;33997;53.278;9.708;2023-05-10T07:17:00;8.57;;;3.78;;
48207;SDS011;33997;53.278;9.708;2023-05-10T07:19:26;7.60;;;3.33;;
48207;SDS011;33997;53.278;9.708;2023-05-10T07:21:51;11.02;;;3.70;;
48207;SDS011;33997;53.278;9.708;2023-05-10T07:24:17;5.68;;;3.28;;
48207;SDS011;33997;53.278;9.708;2023-05-10T07:26:42;5.30;;;3.70;;
48207;SDS011;33997;53.278;9.708;2023-05-10T07:29:08;6.68;;;3.88;;
48207;SDS011;33997;53.278;9.708;2023-05-10T07:31:33;6.68;;;3.35;;
48207;SDS011;33997;53.278;9.708;2023-05-10T07:33:58;7.20;;;3.60;;
48207;SDS011;33997;53.278;9.708;2023-05-10T07:36:24;7.07;;;4.28;;
48207;SDS011;33997;53.278;9.708;2023-05-10T07:38:49;10.13;;;4.20;;
48207;SDS011;33997;53.278;9.708;2023-05-10T07:41:15;9.65;;;4.15;;
48207;SDS011;33997;53.278;9.708;2023-05-10T07:43:40;7.50;;;4.10;;
48207;SDS011;33997;53.278;9.708;2023-05-10T07:46:06;5.32;;;3.65;;
48207;SDS011;33997;53.278;9.708;2023-05-10T07:48:32;7.95;;;4.03;;
48207;SDS011;33997;53.278;9.708;2023-05-10T07:50:57;6.68;;;4.10;;
48207;SDS011;33997;53.278;9.708;2023-05-10T07:53:23;9.70;;;4.25;;
48207;SDS011;33997;53.278;9.708;2023-05-10T07:55:53;5.60;;;4.20;;
48207;SDS011;33997;53.278;9.708;2023-05-10T07:58:21;7.25;;;4.28;;
48207;SDS011;33997;53.278;9.708;2023-05-10T08:00:47;11.65;;;4.53;;
48207;SDS011;33997;53.278;9.708;2023-05-10T08:03:14;7.97;;;4.55;;
48207;SDS011;33997;53.278;9.708;2023-05-10T08:05:39;8.10;;;4.22;;
48207;SDS011;33997;53.278;9.708;2023-05-10T08:08:05;5.80;;;4.07;;
48207;SDS011;33997;53.278;9.708;2023-05-10T08:10:31;8.43;;;4.72;;
48207;SDS011;33997;53.278;9.708;2023-05-10T08:12:56;8.73;;;4.75;;
48207;SDS011;33997;53.278;9.708;2023-05-10T08:15:23;11.40;;;4.53;;
48207;SDS011;33997;53.278;9.708;2023-05-10T08:17:49;10.10;;;5.00;;
48207;SDS011;33997;53.278;9.708;2023-05-10T08:20:15;8.00;;;4.97;;
48207;SDS011;33997;53.278;9.708;2023-05-10T08:22:43;8.65;;;5.40;;
48207;SDS011;33997;53.278;9.708;2023-05-10T08:25:11;9.70;;;5.25;;
48207;SDS011;33997;53.278;9.708;2023-05-10T08:27:37;9.57;;;5.43;;
48207;SDS011;33997;53.278;9.708;2023-05-10T08:30:02;8.35;;;5.45;;
48207;SDS011;33997;53.278;9.708;2023-05-10T08:32:28;6.43;;;5.00;;
48207;SDS011;33997;53.278;9.708;2023-05-10T08:34:54;9.57;;;5.53;;
48207;SDS011;33997;53.278;9.708;2023-05-10T08:37:20;9.73;;;5.75;;
48207;SDS011;33997;53.278;9.708;2023-05-10T08:39:47;7.85;;;5.85;;
48207;SDS011;33997;53.278;9.708;2023-05-10T08:42:13;11.50;;;6.40;;
48207;SDS011;33997;53.278;9.708;2023-05-10T08:44:43;9.73;;;5.97;;
48207;SDS011;33997;53.278;9.708;2023-05-10T08:47:12;14.85;;;6.95;;
48207;SDS011;33997;53.278;9.708;2023-05-10T08:49:40;11.88;;;6.70;;
48207;SDS011;33997;53.278;9.708;2023-05-10T08:52:06;10.60;;;7.05;;
48207;SDS011;33997;53.278;9.708;2023-05-10T08:54:32;12.40;;;7.00;;
48207;SDS011;33997;53.278;9.708;2023-05-10T08:56:59;11.70;;;7.88;;
48207;SDS011;33997;53.278;9.708;2023-05-10T08:59:25;10.00;;;7.40;;
48207;SDS011;33997;53.278;9.708;2023-05-10T09:01:50;11.95;;;7.53;;
48207;SDS011;33997;53.278;9.708;2023-05-10T09:04:18;9.65;;;7.60;;
48207;SDS011;33997;53.278;9.708;2023-05-10T09:06:45;11.63;;;8.02;;
48207;SDS011;33997;53.278;9.708;2023-05-10T09:09:10;11.98;;;8.77;;
48207;SDS011;33997;53.278;9.708;2023-05-10T09:11:37;11.68;;;8.02;;
48207;SDS011;33997;53.278;9.708;2023-05-10T09:14:02;11.60;;;8.25;;
48207;SDS011;33997;53.278;9.708;2023-05-10T09:16:28;13.73;;;8.23;;
48207;SDS011;33997;53.278;9.708;2023-05-10T09:18:54;12.35;;;8.77;;
48207;SDS011;33997;53.278;9.708;2023-05-10T09:21:20;13.00;;;9.15;;
48207;SDS011;33997;53.278;9.708;2023-05-10T09:23:45;13.07;;;8.77;;
48207;SDS011;33997;53.278;9.708;2023-05-10T09:26:12;10.70;;;8.48;;
48207;SDS011;33997;53.278;9.708;2023-05-10T09:28:50;9.85;;;8.13;;
48207;SDS011;33997;53.278;9.708;2023-05-10T09:31:21;16.40;;;9.68;;
48207;SDS011;33997;53.278;9.708;2023-05-10T09:33:47;14.00;;;9.77;;
48207;SDS011;33997;53.278;9.708;2023-05-10T09:36:13;12.90;;;9.23;;
48207;SDS011;33997;53.278;9.708;2023-05-10T09:38:46;13.52;;;9.13;;
48207;SDS011;33997;53.278;9.708;2023-05-10T09:41:16;12.55;;;9.35;;
48207;SDS011;33997;53.278;9.708;2023-05-10T09:43:43;18.27;;;10.57;;
48207;SDS011;33997;53.278;9.708;2023-05-10T09:46:09;12.52;;;9.43;;
48207;SDS011;33997;53.278;9.708;2023-05-10T09:48:38;13.98;;;9.07;;
48207;SDS011;33997;53.278;9.708;2023-05-10T09:51:07;13.02;;;9.98;;
48207;SDS011;33997;53.278;9.708;2023-05-10T09:53:33;15.70;;;9.60;;
48207;SDS011;33997;53.278;9.708;2023-05-10T09:55:58;14.15;;;9.88;;
48207;SDS011;33997;53.278;9.708;2023-05-10T09:58:24;12.13;;;9.85;;
48207;SDS011;33997;53.278;9.708;2023-05-10T10:00:49;10.50;;;8.85;;
48207;SDS011;33997;53.278;9.708;2023-05-10T10:03:19;14.50;;;10.02;;
48207;SDS011;33997;53.278;9.708;2023-05-10T10:05:46;15.77;;;10.23;;
48207;SDS011;33997;53.278;9.708;2023-05-10T10:08:13;12.18;;;9.32;;
48207;SDS011;33997;53.278;9.708;2023-05-10T10:10:39;16.75;;;10.90;;
48207;SDS011;33997;53.278;9.708;2023-05-10T10:13:05;15.00;;;11.73;;
48207;SDS011;33997;53.278;9.708;2023-05-10T10:15:32;14.95;;;11.85;;
48207;SDS011;33997;53.278;9.708;2023-05-10T10:17:59;16.92;;;11.57;;
48207;SDS011;33997;53.278;9.708;2023-05-10T10:20:25;16.63;;;12.80;;
48207;SDS011;33997;53.278;9.708;2023-05-10T10:22:51;22.60;;;15.00;;
48207;SDS011;33997;53.278;9.708;2023-05-10T10:25:17;19.58;;;14.43;;
48207;SDS011;33997;53.278;9.708;2023-05-10T10:30:35;23.52;;;15.25;;
48207;SDS011;33997;53.278;9.708;2023-05-10T10:35:52;21.48;;;15.68;;
48207;SDS011;33997;53.278;9.708;2023-05-10T10:38:19;22.50;;;16.60;;
48207;SDS011;33997;53.278;9.708;2023-05-10T10:40:46;23.45;;;17.48;;
48207;SDS011;33997;53.278;9.708;2023-05-10T10:43:25;22.10;;;17.23;;
48207;SDS011;33997;53.278;9.708;2023-05-10T10:46:09;20.42;;;16.40;;
48207;SDS011;33997;53.278;9.708;2023-05-10T10:48:47;19.42;;;15.18;;
48207;SDS011;33997;53.278;9.708;2023-05-10T10:51:14;19.00;;;14.40;;
48207;SDS011;33997;53.278;9.708;2023-05-10T10:53:39;17.27;;;13.77;;
48207;SDS011;33997;53.278;9.708;2023-05-10T10:56:06;17.85;;;15.18;;
48207;SDS011;33997;53.278;9.708;2023-05-10T10:58:34;19.42;;;15.50;;
48207;SDS011;33997;53.278;9.708;2023-05-10T11:01:11;20.60;;;15.45;;
48207;SDS011;33997;53.278;9.708;2023-05-10T11:03:54;20.90;;;14.87;;
48207;SDS011;33997;53.278;9.708;2023-05-10T11:06:34;19.13;;;14.45;;
48207;SDS011;33997;53.278;9.708;2023-05-10T11:09:10;15.60;;;12.70;;
48207;SDS011;33997;53.278;9.708;2023-05-10T11:11:53;20.67;;;12.77;;
48207;SDS011;33997;53.278;9.708;2023-05-10T11:14:23;15.40;;;12.45;;
48207;SDS011;33997;53.278;9.708;2023-05-10T11:16:49;17.30;;;13.13;;
48207;SDS011;33997;53.278;9.708;2023-05-10T11:19:15;15.65;;;12.48;;
48207;SDS011;33997;53.278;9.708;2023-05-10T11:21:46;13.52;;;11.00;;
48207;SDS011;33997;53.278;9.708;2023-05-10T11:24:13;14.27;;;11.18;;
48207;SDS011;33997;53.278;9.708;2023-05-10T11:26:41;13.32;;;10.60;;
48207;SDS011;33997;53.278;9.708;2023-05-10T11:29:06;13.45;;;10.75;;
48207;SDS011;33997;53.278;9.708;2023-05-10T11:31:32;12.88;;;11.02;;
48207;SDS011;33997;53.278;9.708;2023-05-10T11:33:58;13.63;;;11.30;;
48207;SDS011;33997;53.278;9.708;2023-05-10T11:36:27;12.80;;;10.50;;
48207;SDS011;33997;53.278;9.708;2023-05-10T11:38:54;12.95;;;10.68;;
48207;SDS011;33997;53.278;9.708;2023-05-10T11:41:22;11.88;;;9.88;;
48207;SDS011;33997;53.278;9.708;2023-05-10T11:43:54;11.65;;;9.63;;
48207;SDS011;33997;53.278;9.708;2023-05-10T11:46:21;12.75;;;10.02;;
48207;SDS011;33997;53.278;9.708;2023-05-10T11:48:57;14.15;;;10.48;;
48207;SDS011;33997;53.278;9.708;2023-05-10T11:51:26;11.85;;;9.82;;
48207;SDS011;33997;53.278;9.708;2023-05-10T11:53:53;13.18;;;10.50;;
48207;SDS011;33997;53.278;9.708;2023-05-10T11:56:19;12.07;;;10.30;;
48207;SDS011;33997;53.278;9.708;2023-05-10T11:58:45;12.90;;;9.65;;
48207;SDS011;33997;53.278;9.708;2023-05-10T12:03:42;12.13;;;9.73;;
48207;SDS011;33997;53.278;9.708;2023-05-10T12:06:07;11.40;;;9.98;;
48207;SDS011;33997;53.278;9.708;2023-05-10T12:08:33;11.15;;;9.45;;
48207;SDS011;33997;53.278;9.708;2023-05-10T12:11:08;12.35;;;9.30;;
48207;SDS011;33997;53.278;9.708;2023-05-10T12:13:38;12.23;;;8.75;;
48207;SDS011;33997;53.278;9.708;2023-05-10T12:18:50;11.18;;;8.65;;
48207;SDS011;33997;53.278;9.708;2023-05-10T12:21:18;10.43;;;8.40;;
48207;SDS011;33997;53.278;9.708;2023-05-10T12:23:48;10.93;;;8.63;;
48207;SDS011;33997;53.278;9.708;2023-05-10T12:26:17;11.27;;;8.90;;
48207;SDS011;33997;53.278;9.708;2023-05-10T12:28:43;10.45;;;8.57;;
48207;SDS011;33997;53.278;9.708;2023-05-10T12:31:09;11.63;;;8.32;;
48207;SDS011;33997;53.278;9.708;2023-05-10T12:33:35;11.63;;;9.05;;
48207;SDS011;33997;53.278;9.708;2023-05-10T12:36:03;12.10;;;8.82;;
48207;SDS011;33997;53.278;9.708;2023-05-10T12:38:34;9.30;;;8.20;;
48207;SDS011;33997;53.278;9.708;2023-05-10T12:41:08;10.95;;;8.02;;
48207;SDS011;33997;53.278;9.708;2023-05-10T12:43:35;9.77;;;8.07;;
48207;SDS011;33997;53.278;9.708;2023-05-10T12:46:07;9.85;;;8.07;;
48207;SDS011;33997;53.278;9.708;2023-05-10T12:48:35;9.02;;;7.53;;
48207;SDS011;33997;53.278;9.708;2023-05-10T12:51:01;9.85;;;8.20;;
48207;SDS011;33997;53.278;9.708;2023-05-10T12:53:28;11.23;;;8.07;;
48207;SDS011;33997;53.278;9.708;2023-05-10T12:55:54;10.15;;;7.32;;
48207;SDS011;33997;53.278;9.708;2023-05-10T12:58:19;8.77;;;7.43;;
48207;SDS011;33997;53.278;9.708;2023-05-10T13:00:45;9.25;;;7.22;;
48207;SDS011;33997;53.278;9.708;2023-05-10T13:03:11;8.82;;;6.93;;
48207;SDS011;33997;53.278;9.708;2023-05-10T13:05:36;10.63;;;7.32;;
48207;SDS011;33997;53.278;9.708;2023-05-10T13:08:03;7.97;;;6.82;;
48207;SDS011;33997;53.278;9.708;2023-05-10T13:10:31;8.25;;;6.40;;
48207;SDS011;33997;53.278;9.708;2023-05-10T13:12:57;10.95;;;6.78;;
48207;SDS011;33997;53.278;9.708;2023-05-10T13:15:23;9.38;;;6.65;;
48207;SDS011;33997;53.278;9.708;2023-05-10T13:17:49;10.38;;;6.97;;
48207;SDS011;33997;53.278;9.708;2023-05-10T13:20:15;8.63;;;6.38;;
48207;SDS011;33997;53.278;9.708;2023-05-10T13:22:41;9.27;;;6.55;;
48207;SDS011;33997;53.278;9.708;2023-05-10T13:25:07;8.15;;;6.35;;
48207;SDS011;33997;53.278;9.708;2023-05-10T13:27:33;8.30;;;5.88;;
48207;SDS011;33997;53.278;9.708;2023-05-10T13:29:59;6.55;;;5.68;;
48207;SDS011;33997;53.278;9.708;2023-05-10T13:32:25;8.38;;;5.65;;
48207;SDS011;33997;53.278;9.708;2023-05-10T13:34:50;9.75;;;5.95;;
48207;SDS011;33997;53.278;9.708;2023-05-10T13:37:16;7.35;;;5.30;;
48207;SDS011;33997;53.278;9.708;2023-05-10T13:39:41;7.90;;;5.57;;
48207;SDS011;33997;53.278;9.708;2023-05-10T13:42:07;7.28;;;4.80;;
48207;SDS011;33997;53.278;9.708;2023-05-10T13:44:32;6.65;;;4.90;;
48207;SDS011;33997;53.278;9.708;2023-05-10T13:46:58;6.25;;;4.82;;
48207;SDS011;33997;53.278;9.708;2023-05-10T13:49:24;8.23;;;5.32;;
48207;SDS011;33997;53.278;9.708;2023-05-10T13:51:49;6.82;;;5.25;;
48207;SDS011;33997;53.278;9.708;2023-05-10T13:54:15;6.43;;;4.70;;
48207;SDS011;33997;53.278;9.708;2023-05-10T13:56:44;8.93;;;4.50;;
48207;SDS011;33997;53.278;9.708;2023-05-10T13:59:10;6.45;;;4.60;;
48207;SDS011;33997;53.278;9.708;2023-05-10T14:01:35;6.70;;;4.43;;
48207;SDS011;33997;53.278;9.708;2023-05-10T14:04:01;5.22;;;4.15;;
48207;SDS011;33997;53.278;9.708;2023-05-10T14:06:26;7.57;;;4.30;;
48207;SDS011;33997;53.278;9.708;2023-05-10T14:08:52;5.28;;;4.20;;
48207;SDS011;33997;53.278;9.708;2023-05-10T14:11:18;6.80;;;4.25;;
48207;SDS011;33997;53.278;9.708;2023-05-10T14:13:44;5.10;;;3.95;;
48207;SDS011;33997;53.278;9.708;2023-05-10T14:16:10;7.63;;;3.97;;
48207;SDS011;33997;53.278;9.708;2023-05-10T14:18:36;6.32;;;4.30;;
48207;SDS011;33997;53.278;9.708;2023-05-10T14:21:02;7.97;;;5.03;;
48207;SDS011;33997;53.278;9.708;2023-05-10T14:23:28;8.10;;;4.90;;
48207;SDS011;33997;53.278;9.708;2023-05-10T14:25:53;7.57;;;4.35;;
48207;SDS011;33997;53.278;9.708;2023-05-10T14:28:19;5.72;;;4.28;;
48207;SDS011;33997;53.278;9.708;2023-05-10T14:30:45;5.75;;;4.50;;
48207;SDS011;33997;53.278;9.708;2023-05-10T14:33:11;8.77;;;5.25;;
48207;SDS011;33997;53.278;9.708;2023-05-10T14:35:37;6.13;;;4.65;;
48207;SDS011;33997;53.278;9.708;2023-05-10T14:38:03;9.25;;;5.22;;
48207;SDS011;33997;53.278;9.708;2023-05-10T14:40:29;8.15;;;5.32;;
48207;SDS011;33997;53.278;9.708;2023-05-10T14:42:54;8.07;;;5.03;;
48207;SDS011;33997;53.278;9.708;2023-05-10T14:45:21;6.65;;;4.57;;
48207;SDS011;33997;53.278;9.708;2023-05-10T14:47:47;5.80;;;4.05;;
48207;SDS011;33997;53.278;9.708;2023-05-10T14:50:12;7.13;;;4.38;;
48207;SDS011;33997;53.278;9.708;2023-05-10T14:52:38;8.13;;;5.18;;
48207;SDS011;33997;53.278;9.708;2023-05-10T14:55:04;7.07;;;4.57;;
48207;SDS011;33997;53.278;9.708;2023-05-10T14:57:29;8.52;;;5.05;;
48207;SDS011;33997;53.278;9.708;2023-05-10T14:59:55;7.15;;;5.10;;
48207;SDS011;33997;53.278;9.708;2023-05-10T15:02:21;6.95;;;5.10;;